sensor_id;sensor_type;location;lat;lon;timestamp;pressure;altitude;pressure_sealevel;temperature;humidity
39435;BME280;66825;51.880;-0.518;2023-02-13T00:01:36;102588.59;;;13.47;42.36
39435;BME280;66825;51.880;-0.518;2023-02-13T00:04:02;102575.06;;;13.47;42.57
39435;BME280;66825;51.880;-0.518;2023-02-13T00:06:28;102567.75;;;13.47;42.54
39435;BME280;66825;51.880;-0.518;2023-02-13T00:08:54;102578.59;;;13.47;42.57
39435;BME280;66825;51.880;-0.518;2023-02-13T00:11:19;102526.16;;;13.10;43.04
39435;BME280;66825;51.880;-0.518;2023-02-13T00:13:45;102559.94;;;13.32;42.39
39435;BME280;66825;51.880;-0.518;2023-02-13T00:16:10;102572.16;;;13.42;42.52
39435;BME280;66825;51.880;-0.518;2023-02-13T00:18:37;102582.34;;;13.46;42.62
39435;BME280;66825;51.880;-0.518;2023-02-13T00:21:09;102587.75;;;13.46;42.73
39435;BME280;66825;51.880;-0.518;2023-02-13T00:23:36;102587.75;;;13.46;42.40
39435;BME280;66825;51.880;-0.518;2023-02-13T00:26:12;102590.47;;;13.46;42.03
39435;BME280;66825;51.880;-0.518;2023-02-13T00:28:38;102583.19;;;13.47;42.28
39435;BME280;66825;51.880;-0.518;2023-02-13T00:31:10;102585.88;;;13.47;42.46
39435;BME280;66825;51.880;-0.518;2023-02-13T00:33:35;102573.41;;;13.46;42.95
39435;BME280;66825;51.880;-0.518;2023-02-13T00:36:15;102586.09;;;13.45;43.21
39435;BME280;66825;51.880;-0.518;2023-02-13T00:38:42;102581.53;;;13.46;42.08
39435;BME280;66825;51.880;-0.518;2023-02-13T00:41:09;102577.97;;;13.45;42.45
39435;BME280;66825;51.880;-0.518;2023-02-13T00:43:35;102586.09;;;13.45;42.24
39435;BME280;66825;51.880;-0.518;2023-02-13T00:46:01;102557.00;;;13.34;42.54
39435;BME280;66825;51.880;-0.518;2023-02-13T00:48:28;102585.28;;;13.45;42.32
39435;BME280;66825;51.880;-0.518;2023-02-13T00:50:54;102572.16;;;13.42;42.56
39435;BME280;66825;51.880;-0.518;2023-02-13T00:53:21;102569.03;;;13.45;42.34
39435;BME280;66825;51.880;-0.518;2023-02-13T00:55:47;102502.25;;;13.00;41.90
39435;BME280;66825;51.880;-0.518;2023-02-13T00:58:13;102562.75;;;13.44;42.83
39435;BME280;66825;51.880;-0.518;2023-02-13T01:00:39;102477.97;;;12.93;42.21
39435;BME280;66825;51.880;-0.518;2023-02-13T01:03:05;102569.84;;;13.45;42.59
39435;BME280;66825;51.880;-0.518;2023-02-13T01:05:31;102561.72;;;13.45;42.79
39435;BME280;66825;51.880;-0.518;2023-02-13T01:07:56;102562.75;;;13.44;42.85
39435;BME280;66825;51.880;-0.518;2023-02-13T01:10:22;102569.03;;;13.45;42.31
39435;BME280;66825;51.880;-0.518;2023-02-13T01:12:47;102553.81;;;13.44;42.51
39435;BME280;66825;51.880;-0.518;2023-02-13T01:15:13;102554.63;;;13.44;42.74
39435;BME280;66825;51.880;-0.518;2023-02-13T01:17:39;102559.25;;;13.44;42.67
39435;BME280;66825;51.880;-0.518;2023-02-13T01:20:06;102551.94;;;13.44;42.63
39435;BME280;66825;51.880;-0.518;2023-02-13T01:22:32;102556.31;;;13.45;42.85
39435;BME280;66825;51.880;-0.518;2023-02-13T01:24:57;102560.06;;;13.44;43.05
39435;BME280;66825;51.880;-0.518;2023-02-13T01:27:22;102555.72;;;13.43;42.97
39435;BME280;66825;51.880;-0.518;2023-02-13T01:29:48;102562.75;;;13.44;42.36
39435;BME280;66825;51.880;-0.518;2023-02-13T01:32:13;102563.59;;;13.45;42.48
39435;BME280;66825;51.880;-0.518;2023-02-13T01:34:39;102531.63;;;13.28;42.32
39435;BME280;66825;51.880;-0.518;2023-02-13T01:37:04;102562.75;;;13.44;42.65
39435;BME280;66825;51.880;-0.518;2023-02-13T01:39:30;102564.66;;;13.44;42.55
39435;BME280;66825;51.880;-0.518;2023-02-13T01:41:55;102561.94;;;13.44;42.29
39435;BME280;66825;51.880;-0.518;2023-02-13T01:45:23;102490.19;;;13.02;42.37
39435;BME280;66825;51.880;-0.518;2023-02-13T01:50:16;102477.13;;;12.93;42.68
39435;BME280;66825;51.880;-0.518;2023-02-13T01:52:55;102563.00;;;13.43;43.07
39435;BME280;66825;51.880;-0.518;2023-02-13T01:55:23;102555.72;;;13.43;42.90
39435;BME280;66825;51.880;-0.518;2023-02-13T01:58:03;102539.47;;;13.43;42.94
39435;BME280;66825;51.880;-0.518;2023-02-13T02:00:31;102510.03;;;13.22;42.87
39435;BME280;66825;51.880;-0.518;2023-02-13T02:03:04;102553.00;;;13.43;42.48
39435;BME280;66825;51.880;-0.518;2023-02-13T02:05:31;102563.84;;;13.43;43.13
39435;BME280;66825;51.880;-0.518;2023-02-13T02:08:00;102557.56;;;13.43;42.35
39435;BME280;66825;51.880;-0.518;2023-02-13T02:10:26;102551.34;;;13.42;42.61
39435;BME280;66825;51.880;-0.518;2023-02-13T02:13:16;102546.13;;;13.41;42.34
39435;BME280;66825;51.880;-0.518;2023-02-13T02:15:45;102539.66;;;13.42;42.42
39435;BME280;66825;51.880;-0.518;2023-02-13T02:18:17;102537.81;;;13.42;42.37
39435;BME280;66825;51.880;-0.518;2023-02-13T02:23:57;102537.81;;;13.42;42.98
39435;BME280;66825;51.880;-0.518;2023-02-13T02:35:12;102528.84;;;13.42;42.63
39435;BME280;66825;51.880;-0.518;2023-02-13T02:37:50;102529.69;;;13.42;42.73
39435;BME280;66825;51.880;-0.518;2023-02-13T02:40:30;102452.56;;;12.94;42.63
39435;BME280;66825;51.880;-0.518;2023-02-13T02:45:48;102531.53;;;13.42;42.21
39435;BME280;66825;51.880;-0.518;2023-02-13T02:48:30;102544.25;;;13.41;42.24
39435;BME280;66825;51.880;-0.518;2023-02-13T02:51:44;102546.13;;;13.41;42.27
39435;BME280;66825;51.880;-0.518;2023-02-13T02:54:19;102543.66;;;13.39;42.36
39435;BME280;66825;51.880;-0.518;2023-02-13T02:57:10;102543.66;;;13.39;41.93
39435;BME280;66825;51.880;-0.518;2023-02-13T02:59:39;102525.53;;;13.40;42.64
39435;BME280;66825;51.880;-0.518;2023-02-13T03:02:25;102526.38;;;13.33;42.74
39435;BME280;66825;51.880;-0.518;2023-02-13T03:05:23;102525.53;;;13.40;42.67
39435;BME280;66825;51.880;-0.518;2023-02-13T03:08:09;102532.81;;;13.39;42.83
39435;BME280;66825;51.880;-0.518;2023-02-13T03:10:35;102520.13;;;13.40;42.43
39435;BME280;66825;51.880;-0.518;2023-02-13T03:13:44;102470.16;;;13.03;42.77
39435;BME280;66825;51.880;-0.518;2023-02-13T03:16:16;102514.91;;;13.38;42.36
39435;BME280;66825;51.880;-0.518;2023-02-13T03:19:02;102510.75;;;13.35;42.68
39435;BME280;66825;51.880;-0.518;2023-02-13T03:21:58;102515.75;;;13.39;42.42
39435;BME280;66825;51.880;-0.518;2023-02-13T03:24:55;102514.06;;;13.38;42.13
39435;BME280;66825;51.880;-0.518;2023-02-13T03:27:46;102514.91;;;13.38;42.32
39435;BME280;66825;51.880;-0.518;2023-02-13T03:30:37;102517.63;;;13.38;42.35
39435;BME280;66825;51.880;-0.518;2023-02-13T03:33:13;102515.94;;;13.37;42.66
39435;BME280;66825;51.880;-0.518;2023-02-13T03:44:54;102453.94;;;13.03;42.50
39435;BME280;66825;51.880;-0.518;2023-02-13T03:47:40;102420.59;;;12.84;42.26
39435;BME280;66825;51.880;-0.518;2023-02-13T03:50:08;102512.19;;;13.38;42.11
39435;BME280;66825;51.880;-0.518;2023-02-13T03:52:54;102517.81;;;13.37;42.26
39435;BME280;66825;51.880;-0.518;2023-02-13T03:55:30;102504.13;;;13.31;42.56
39435;BME280;66825;51.880;-0.518;2023-02-13T03:58:26;102514.06;;;13.38;42.40
39435;BME280;66825;51.880;-0.518;2023-02-13T04:01:13;102513.22;;;13.37;42.11
39435;BME280;66825;51.880;-0.518;2023-02-13T04:06:33;102512.41;;;13.37;42.49
39435;BME280;66825;51.880;-0.518;2023-02-13T04:09:00;102513.22;;;13.37;42.01
39435;BME280;66825;51.880;-0.518;2023-02-13T04:11:40;102515.09;;;13.37;42.04
39435;BME280;66825;51.880;-0.518;2023-02-13T04:14:14;102517.00;;;13.36;42.37
39435;BME280;66825;51.880;-0.518;2023-02-13T04:16:46;102517.81;;;13.37;42.75
39435;BME280;66825;51.880;-0.518;2023-02-13T04:19:14;102506.97;;;13.37;42.69
39435;BME280;66825;51.880;-0.518;2023-02-13T04:21:40;102504.94;;;13.32;42.61
39435;BME280;66825;51.880;-0.518;2023-02-13T04:24:06;102508.88;;;13.36;42.80
39435;BME280;66825;51.880;-0.518;2023-02-13T04:26:37;102508.66;;;13.38;42.19
39435;BME280;66825;51.880;-0.518;2023-02-13T04:29:04;102518.63;;;13.37;43.09
39435;BME280;66825;51.880;-0.518;2023-02-13T04:31:30;102518.63;;;13.37;42.52
39435;BME280;66825;51.880;-0.518;2023-02-13T04:33:55;102518.84;;;13.35;42.43
39435;BME280;66825;51.880;-0.518;2023-02-13T04:36:21;102514.28;;;13.36;42.44
39435;BME280;66825;51.880;-0.518;2023-02-13T04:38:46;102485.66;;;13.22;42.64
39435;BME280;66825;51.880;-0.518;2023-02-13T04:41:12;102509.69;;;13.37;42.17
39435;BME280;66825;51.880;-0.518;2023-02-13T04:43:37;102513.22;;;13.37;42.51
39435;BME280;66825;51.880;-0.518;2023-02-13T04:46:03;102460.19;;;13.04;42.37
39435;BME280;66825;51.880;-0.518;2023-02-13T04:48:29;102499.59;;;13.25;42.80
39435;BME280;66825;51.880;-0.518;2023-02-13T04:50:54;102494.25;;;13.37;42.91
39435;BME280;66825;51.880;-0.518;2023-02-13T04:53:20;102507.81;;;13.37;42.30
39435;BME280;66825;51.880;-0.518;2023-02-13T04:55:45;102496.16;;;13.37;42.38
39435;BME280;66825;51.880;-0.518;2023-02-13T04:58:11;102493.44;;;13.37;42.73
39435;BME280;66825;51.880;-0.518;2023-02-13T05:00:36;102498.66;;;13.38;42.00
39435;BME280;66825;51.880;-0.518;2023-02-13T05:03:06;102438.09;;;13.07;42.26
39435;BME280;66825;51.880;-0.518;2023-02-13T05:05:33;102489.94;;;13.36;42.19
39435;BME280;66825;51.880;-0.518;2023-02-13T05:07:58;102491.56;;;13.37;42.28
39435;BME280;66825;51.880;-0.518;2023-02-13T05:10:24;102488.03;;;13.37;42.67
39435;BME280;66825;51.880;-0.518;2023-02-13T05:12:49;102490.97;;;13.35;42.51
39435;BME280;66825;51.880;-0.518;2023-02-13T05:15:15;102485.31;;;13.37;42.54
39435;BME280;66825;51.880;-0.518;2023-02-13T05:17:43;102469.97;;;13.30;42.32
39435;BME280;66825;51.880;-0.518;2023-02-13T05:20:09;102487.22;;;13.36;42.20
39435;BME280;66825;51.880;-0.518;2023-02-13T05:22:34;102471.63;;;13.31;42.52
39435;BME280;66825;51.880;-0.518;2023-02-13T05:25:19;102478.25;;;13.35;42.59
39435;BME280;66825;51.880;-0.518;2023-02-13T05:27:44;102483.66;;;13.35;42.83
39435;BME280;66825;51.880;-0.518;2023-02-13T05:30:10;102472.03;;;13.35;42.71
39435;BME280;66825;51.880;-0.518;2023-02-13T05:32:36;102487.66;;;13.33;42.31
39435;BME280;66825;51.880;-0.518;2023-02-13T05:35:02;102474.94;;;13.33;42.32
39435;BME280;66825;51.880;-0.518;2023-02-13T05:37:28;102489.06;;;13.35;42.38
39435;BME280;66825;51.880;-0.518;2023-02-13T05:39:53;102490.97;;;13.35;42.07
39435;BME280;66825;51.880;-0.518;2023-02-13T05:42:18;102477.94;;;13.25;42.41
39435;BME280;66825;51.880;-0.518;2023-02-13T05:44:44;102497.19;;;13.35;42.29
39435;BME280;66825;51.880;-0.518;2023-02-13T05:47:09;102490.97;;;13.35;42.31
39435;BME280;66825;51.880;-0.518;2023-02-13T05:49:35;102492.25;;;13.32;42.31
39435;BME280;66825;51.880;-0.518;2023-02-13T05:52:00;102508.88;;;13.36;42.36
39435;BME280;66825;51.880;-0.518;2023-02-13T05:54:26;102489.06;;;13.35;42.22
39435;BME280;66825;51.880;-0.518;2023-02-13T05:56:51;102468.81;;;13.19;42.55
39435;BME280;66825;51.880;-0.518;2023-02-13T05:59:17;102493.69;;;13.35;42.28
39435;BME280;66825;51.880;-0.518;2023-02-13T06:01:42;102504.50;;;13.35;42.38
39435;BME280;66825;51.880;-0.518;2023-02-13T06:04:08;102494.72;;;13.34;42.19
39435;BME280;66825;51.880;-0.518;2023-02-13T06:06:33;102498.25;;;13.34;42.17
39435;BME280;66825;51.880;-0.518;2023-02-13T06:08:59;102492.00;;;13.34;42.56
39435;BME280;66825;51.880;-0.518;2023-02-13T06:11:24;102501.81;;;13.35;42.21
39435;BME280;66825;51.880;-0.518;2023-02-13T06:13:50;102494.50;;;13.35;42.60
39435;BME280;66825;51.880;-0.518;2023-02-13T06:16:15;102505.31;;;13.35;42.65
39435;BME280;66825;51.880;-0.518;2023-02-13T06:18:41;102503.66;;;13.34;42.45
39435;BME280;66825;51.880;-0.518;2023-02-13T06:21:06;102503.66;;;13.34;42.18
39435;BME280;66825;51.880;-0.518;2023-02-13T06:23:32;102506.38;;;13.34;42.51
39435;BME280;66825;51.880;-0.518;2023-02-13T06:26:02;102507.22;;;13.35;42.14
39435;BME280;66825;51.880;-0.518;2023-02-13T06:28:28;102498.09;;;13.29;42.44
39435;BME280;66825;51.880;-0.518;2023-02-13T06:30:53;102509.06;;;13.34;42.25
39435;BME280;66825;51.880;-0.518;2023-02-13T06:33:18;102506.38;;;13.34;42.18
39435;BME280;66825;51.880;-0.518;2023-02-13T06:35:44;102500.13;;;13.34;42.34
39435;BME280;66825;51.880;-0.518;2023-02-13T06:38:09;102498.25;;;13.34;42.70
39435;BME280;66825;51.880;-0.518;2023-02-13T06:40:35;102470.91;;;13.17;42.17
39435;BME280;66825;51.880;-0.518;2023-02-13T06:43:00;102473.19;;;13.21;42.03
39435;BME280;66825;51.880;-0.518;2023-02-13T06:45:26;102473.00;;;13.15;42.38
39435;BME280;66825;51.880;-0.518;2023-02-13T06:47:51;102504.72;;;13.33;41.93
39435;BME280;66825;51.880;-0.518;2023-02-13T06:50:17;102499.28;;;13.33;42.31
39435;BME280;66825;51.880;-0.518;2023-02-13T06:52:49;102476.72;;;13.21;42.21
39435;BME280;66825;51.880;-0.518;2023-02-13T06:55:16;102502.00;;;13.33;42.30
39435;BME280;66825;51.880;-0.518;2023-02-13T06:57:43;102476.47;;;13.23;41.80
39435;BME280;66825;51.880;-0.518;2023-02-13T07:00:09;102486.84;;;13.32;42.12
39435;BME280;66825;51.880;-0.518;2023-02-13T07:02:39;102475.03;;;13.20;42.29
39435;BME280;66825;51.880;-0.518;2023-02-13T07:05:05;102482.06;;;13.28;42.41
39435;BME280;66825;51.880;-0.518;2023-02-13T07:07:35;102489.97;;;13.29;42.37
39435;BME280;66825;51.880;-0.518;2023-02-13T07:10:01;102436.09;;;12.96;42.08
39435;BME280;66825;51.880;-0.518;2023-02-13T07:12:26;102497.66;;;13.32;42.19
39435;BME280;66825;51.880;-0.518;2023-02-13T07:14:52;102497.66;;;13.32;42.19
39435;BME280;66825;51.880;-0.518;2023-02-13T07:17:17;102506.84;;;13.31;42.36
39435;BME280;66825;51.880;-0.518;2023-02-13T07:19:43;102419.31;;;12.87;41.80
39435;BME280;66825;51.880;-0.518;2023-02-13T07:22:08;102494.09;;;13.32;42.06
39435;BME280;66825;51.880;-0.518;2023-02-13T07:24:33;102487.25;;;13.29;42.19
39435;BME280;66825;51.880;-0.518;2023-02-13T07:27:00;102510.34;;;13.32;41.78
39435;BME280;66825;51.880;-0.518;2023-02-13T07:29:26;102504.28;;;13.37;42.84
39435;BME280;66825;51.880;-0.518;2023-02-13T07:31:51;102504.94;;;13.39;41.97
39435;BME280;66825;51.880;-0.518;2023-02-13T07:34:17;102497.19;;;13.42;42.05
39435;BME280;66825;51.880;-0.518;2023-02-13T07:36:42;102491.31;;;13.45;42.37
39435;BME280;66825;51.880;-0.518;2023-02-13T07:39:08;102480.31;;;13.40;42.34
39435;BME280;66825;51.880;-0.518;2023-02-13T07:41:33;102502.72;;;13.54;43.31
39435;BME280;66825;51.880;-0.518;2023-02-13T07:43:59;102495.56;;;13.60;43.21
39435;BME280;66825;51.880;-0.518;2023-02-13T07:46:24;102502.78;;;13.66;42.93
39435;BME280;66825;51.880;-0.518;2023-02-13T07:48:52;102496.69;;;13.71;43.32
39435;BME280;66825;51.880;-0.518;2023-02-13T07:51:18;102500.34;;;13.83;42.76
39435;BME280;66825;51.880;-0.518;2023-02-13T07:53:44;102504.63;;;13.91;42.69
39435;BME280;66825;51.880;-0.518;2023-02-13T07:56:10;102503.34;;;13.93;43.05
39435;BME280;66825;51.880;-0.518;2023-02-13T07:58:36;102515.94;;;14.06;42.78
39435;BME280;66825;51.880;-0.518;2023-02-13T08:01:06;102487.25;;;13.98;42.78
39435;BME280;66825;51.880;-0.518;2023-02-13T08:03:32;102506.34;;;14.22;42.83
39435;BME280;66825;51.880;-0.518;2023-02-13T08:05:58;102505.28;;;14.23;42.95
39435;BME280;66825;51.880;-0.518;2023-02-13T08:08:23;102484.66;;;14.22;42.77
39435;BME280;66825;51.880;-0.518;2023-02-13T08:10:49;102514.00;;;14.44;42.34
39435;BME280;66825;51.880;-0.518;2023-02-13T08:13:33;102510.97;;;14.52;42.35
39435;BME280;66825;51.880;-0.518;2023-02-13T08:15:58;102496.72;;;14.57;42.31
39435;BME280;66825;51.880;-0.518;2023-02-13T08:18:24;102499.38;;;14.64;42.51
39435;BME280;66825;51.880;-0.518;2023-02-13T08:20:49;102493.56;;;14.60;42.41
39435;BME280;66825;51.880;-0.518;2023-02-13T08:23:15;102507.09;;;14.79;41.97
39435;BME280;66825;51.880;-0.518;2023-02-13T08:25:40;102505.97;;;14.86;42.08
39435;BME280;66825;51.880;-0.518;2023-02-13T08:28:06;102503.13;;;14.93;42.05
39435;BME280;66825;51.880;-0.518;2023-02-13T08:30:31;102508.47;;;15.00;42.08
39435;BME280;66825;51.880;-0.518;2023-02-13T08:32:57;102502.13;;;15.06;41.72
39435;BME280;66825;51.880;-0.518;2023-02-13T08:35:23;102485.72;;;15.01;41.68
39435;BME280;66825;51.880;-0.518;2023-02-13T08:37:51;102503.56;;;15.20;41.74
39435;BME280;66825;51.880;-0.518;2023-02-13T08:40:17;102509.59;;;15.22;41.56
39435;BME280;66825;51.880;-0.518;2023-02-13T08:42:42;102501.91;;;15.31;41.59
39435;BME280;66825;51.880;-0.518;2023-02-13T08:45:08;102416.78;;;14.90;41.61
39435;BME280;66825;51.880;-0.518;2023-02-13T08:47:36;102475.00;;;15.30;41.50
39435;BME280;66825;51.880;-0.518;2023-02-13T08:50:02;102500.97;;;15.49;41.37
39435;BME280;66825;51.880;-0.518;2023-02-13T08:52:28;102437.44;;;15.15;41.36
39435;BME280;66825;51.880;-0.518;2023-02-13T08:54:53;102467.91;;;15.40;41.24
39435;BME280;66825;51.880;-0.518;2023-02-13T08:57:19;102493.19;;;15.65;41.01
39435;BME280;66825;51.880;-0.518;2023-02-13T08:59:45;102490.56;;;15.70;41.23
39435;BME280;66825;51.880;-0.518;2023-02-13T09:02:10;102493.41;;;15.75;41.28
39435;BME280;66825;51.880;-0.518;2023-02-13T09:04:36;102431.75;;;15.40;40.91
39435;BME280;66825;51.880;-0.518;2023-02-13T09:07:01;102489.16;;;15.79;41.18
39435;BME280;66825;51.880;-0.518;2023-02-13T09:09:27;102486.56;;;15.84;41.26
39435;BME280;66825;51.880;-0.518;2023-02-13T09:11:52;102487.16;;;15.86;40.99
39435;BME280;66825;51.880;-0.518;2023-02-13T09:14:22;102492.13;;;15.90;41.60
39435;BME280;66825;51.880;-0.518;2023-02-13T09:16:48;102337.31;;;15.06;41.16
39435;BME280;66825;51.880;-0.518;2023-02-13T09:19:13;102478.50;;;16.01;41.54
39435;BME280;66825;51.880;-0.518;2023-02-13T09:21:39;102461.63;;;15.99;42.80
39435;BME280;66825;51.880;-0.518;2023-02-13T09:24:08;102469.06;;;16.04;42.74
39435;BME280;66825;51.880;-0.518;2023-02-13T09:26:34;102483.53;;;16.22;43.72
39435;BME280;66825;51.880;-0.518;2023-02-13T09:28:59;102246.59;;;14.79;41.48
39435;BME280;66825;51.880;-0.518;2023-02-13T09:31:25;102468.41;;;16.26;41.78
39435;BME280;66825;51.880;-0.518;2023-02-13T09:33:50;102470.00;;;16.39;40.91
39435;BME280;66825;51.880;-0.518;2023-02-13T09:36:19;102472.81;;;16.44;42.11
39435;BME280;66825;51.880;-0.518;2023-02-13T09:38:46;102471.59;;;16.51;44.66
39435;BME280;66825;51.880;-0.518;2023-02-13T09:43:49;102465.75;;;16.60;42.00
39435;BME280;66825;51.880;-0.518;2023-02-13T09:46:19;102455.56;;;16.67;41.63
39435;BME280;66825;51.880;-0.518;2023-02-13T09:48:52;102449.03;;;16.68;42.03
39435;BME280;66825;51.880;-0.518;2023-02-13T09:51:20;102447.78;;;16.76;42.16
39435;BME280;66825;51.880;-0.518;2023-02-13T09:53:58;102449.78;;;16.80;41.84
39435;BME280;66825;51.880;-0.518;2023-02-13T09:56:59;102451.78;;;16.85;41.33
39435;BME280;66825;51.880;-0.518;2023-02-13T10:01:56;102454.72;;;16.95;41.34
39435;BME280;66825;51.880;-0.518;2023-02-13T10:18:33;102451.28;;;17.39;41.13
39435;BME280;66825;51.880;-0.518;2023-02-13T10:21:02;102451.59;;;17.43;40.14
39435;BME280;66825;51.880;-0.518;2023-02-13T10:23:38;102447.31;;;17.47;41.38
39435;BME280;66825;51.880;-0.518;2023-02-13T10:26:17;102449.53;;;17.50;40.27
39435;BME280;66825;51.880;-0.518;2023-02-13T10:28:56;102463.47;;;17.54;39.90
39435;BME280;66825;51.880;-0.518;2023-02-13T10:31:43;102395.94;;;17.17;40.53
39435;BME280;66825;51.880;-0.518;2023-02-13T10:34:14;102449.69;;;17.60;40.73
39435;BME280;66825;51.880;-0.518;2023-02-13T10:36:44;102447.28;;;17.64;40.39
39435;BME280;66825;51.880;-0.518;2023-02-13T10:39:26;102453.59;;;17.70;40.51
39435;BME280;66825;51.880;-0.518;2023-02-13T10:49:58;102453.81;;;17.85;40.13
39435;BME280;66825;51.880;-0.518;2023-02-13T10:55:25;102448.66;;;17.89;39.82
39435;BME280;66825;51.880;-0.518;2023-02-13T11:02:58;102451.69;;;18.09;39.76
39435;BME280;66825;51.880;-0.518;2023-02-13T11:05:31;102422.06;;;17.96;39.43
39435;BME280;66825;51.880;-0.518;2023-02-13T11:07:58;102447.09;;;18.15;39.28
39435;BME280;66825;51.880;-0.518;2023-02-13T11:10:26;102436.47;;;18.14;39.31
39435;BME280;66825;51.880;-0.518;2023-02-13T11:12:52;102439.22;;;18.19;39.37
39435;BME280;66825;51.880;-0.518;2023-02-13T11:17:51;102432.38;;;18.16;38.58
39435;BME280;66825;51.880;-0.518;2023-02-13T11:20:39;102436.78;;;18.17;37.53
39435;BME280;66825;51.880;-0.518;2023-02-13T11:23:32;102429.41;;;18.18;37.72
39435;BME280;66825;51.880;-0.518;2023-02-13T11:26:01;102429.34;;;18.13;37.58
39435;BME280;66825;51.880;-0.518;2023-02-13T11:28:34;102435.13;;;18.16;37.46
39435;BME280;66825;51.880;-0.518;2023-02-13T11:31:31;102422.81;;;18.14;36.54
39435;BME280;66825;51.880;-0.518;2023-02-13T11:33:58;102414.06;;;18.12;37.28
39435;BME280;66825;51.880;-0.518;2023-02-13T11:36:32;102424.41;;;18.09;36.84
39435;BME280;66825;51.880;-0.518;2023-02-13T11:39:03;102405.50;;;18.03;37.02
39435;BME280;66825;51.880;-0.518;2023-02-13T11:41:35;102411.78;;;18.03;37.17
39435;BME280;66825;51.880;-0.518;2023-02-13T11:44:02;102399.75;;;17.99;37.11
39435;BME280;66825;51.880;-0.518;2023-02-13T11:46:41;102401.91;;;17.97;37.02
39435;BME280;66825;51.880;-0.518;2023-02-13T11:51:45;102398.50;;;17.90;36.94
39435;BME280;66825;51.880;-0.518;2023-02-13T11:54:33;102322.16;;;17.40;36.73
39435;BME280;66825;51.880;-0.518;2023-02-13T11:57:18;102387.56;;;17.85;36.86
39435;BME280;66825;51.880;-0.518;2023-02-13T11:59:46;102379.31;;;17.80;37.29
39435;BME280;66825;51.880;-0.518;2023-02-13T12:04:49;102386.97;;;17.83;37.47
39435;BME280;66825;51.880;-0.518;2023-02-13T12:07:29;102384.25;;;17.83;37.45
39435;BME280;66825;51.880;-0.518;2023-02-13T12:10:02;102388.91;;;17.82;37.50
39435;BME280;66825;51.880;-0.518;2023-02-13T12:12:47;102297.06;;;17.38;37.39
39435;BME280;66825;51.880;-0.518;2023-02-13T12:15:28;102377.47;;;17.85;37.80
39435;BME280;66825;51.880;-0.518;2023-02-13T12:18:05;102376.97;;;17.88;37.54
39435;BME280;66825;51.880;-0.518;2023-02-13T12:28:12;102359.56;;;17.94;38.21
39435;BME280;66825;51.880;-0.518;2023-02-13T12:30:52;102355.53;;;17.97;37.47
39435;BME280;66825;51.880;-0.518;2023-02-13T12:36:13;102358.88;;;18.04;37.92
39435;BME280;66825;51.880;-0.518;2023-02-13T12:38:44;102354.00;;;18.06;37.79
39435;BME280;66825;51.880;-0.518;2023-02-13T12:41:30;102362.50;;;18.10;37.63
39435;BME280;66825;51.880;-0.518;2023-02-13T12:44:18;102361.16;;;18.13;37.47
39435;BME280;66825;51.880;-0.518;2023-02-13T12:47:19;102323.44;;;18.04;37.63
39435;BME280;66825;51.880;-0.518;2023-02-13T12:49:53;102341.03;;;18.19;37.48
39435;BME280;66825;51.880;-0.518;2023-02-13T13:08:57;102336.59;;;18.40;37.92
39435;BME280;66825;51.880;-0.518;2023-02-13T13:22:59;102325.56;;;18.62;38.84
39435;BME280;66825;51.880;-0.518;2023-02-13T13:25:33;102332.16;;;18.66;38.95
39435;BME280;66825;51.880;-0.518;2023-02-13T13:28:15;102320.69;;;18.69;38.91
39435;BME280;66825;51.880;-0.518;2023-02-13T13:30:43;102316.63;;;18.72;39.00
39435;BME280;66825;51.880;-0.518;2023-02-13T13:33:17;102327.03;;;18.75;39.02
39435;BME280;66825;51.880;-0.518;2023-02-13T13:36:08;102331.13;;;18.78;38.91
39435;BME280;66825;51.880;-0.518;2023-02-13T13:47:03;102307.72;;;18.87;38.75
39435;BME280;66825;51.880;-0.518;2023-02-13T13:49:47;102297.31;;;18.84;38.44
39435;BME280;66825;51.880;-0.518;2023-02-13T13:52:19;102302.81;;;18.89;38.48
39435;BME280;66825;51.880;-0.518;2023-02-13T13:54:45;102281.97;;;18.78;38.20
39435;BME280;66825;51.880;-0.518;2023-02-13T13:57:17;102307.19;;;18.90;38.32
39435;BME280;66825;51.880;-0.518;2023-02-13T14:07:25;102294.88;;;18.87;38.22
39435;BME280;66825;51.880;-0.518;2023-02-13T14:09:57;102281.22;;;18.87;38.13
39435;BME280;66825;51.880;-0.518;2023-02-13T14:14:49;102289.09;;;18.84;38.09
39435;BME280;66825;51.880;-0.518;2023-02-13T14:20:20;102270.81;;;18.79;37.76
39435;BME280;66825;51.880;-0.518;2023-02-13T14:22:47;102271.91;;;18.78;37.80
39435;BME280;66825;51.880;-0.518;2023-02-13T14:25:39;102266.44;;;18.78;37.98
39435;BME280;66825;51.880;-0.518;2023-02-13T14:28:05;102273.25;;;18.76;37.92
39435;BME280;66825;51.880;-0.518;2023-02-13T14:30:33;102213.25;;;18.43;37.97
39435;BME280;66825;51.880;-0.518;2023-02-13T14:33:07;102216.53;;;18.45;37.98
39435;BME280;66825;51.880;-0.518;2023-02-13T14:36:04;102257.66;;;18.71;38.07
39435;BME280;66825;51.880;-0.518;2023-02-13T14:38:31;102254.34;;;18.69;38.15
39435;BME280;66825;51.880;-0.518;2023-02-13T14:40:56;102258.72;;;18.65;38.46
39435;BME280;66825;51.880;-0.518;2023-02-13T14:43:31;102262.81;;;18.67;38.10
39435;BME280;66825;51.880;-0.518;2023-02-13T14:46:07;102262.81;;;18.67;38.63
39435;BME280;66825;51.880;-0.518;2023-02-13T14:48:56;102259.25;;;18.67;38.13
39435;BME280;66825;51.880;-0.518;2023-02-13T14:51:34;102258.44;;;18.66;38.13
39435;BME280;66825;51.880;-0.518;2023-02-13T14:54:05;102240.94;;;18.62;37.86
39435;BME280;66825;51.880;-0.518;2023-02-13T14:56:32;102205.28;;;18.31;38.00
39435;BME280;66825;51.880;-0.518;2023-02-13T14:59:14;102250.53;;;18.65;38.08
39435;BME280;66825;51.880;-0.518;2023-02-13T15:04:22;102237.38;;;18.56;38.20
39435;BME280;66825;51.880;-0.518;2023-02-13T15:06:52;102213.25;;;18.43;38.45
39435;BME280;66825;51.880;-0.518;2023-02-13T15:11:44;102219.56;;;18.49;38.58
39435;BME280;66825;51.880;-0.518;2023-02-13T15:14:32;102248.88;;;18.64;39.97
39435;BME280;66825;51.880;-0.518;2023-02-13T15:17:19;102248.34;;;18.67;39.84